createdAt,value
2017-08-10T00:00:06.123Z,72.39
2017-08-10T00:02:07.549Z,72.59
2017-08-10T00:04:08.976Z,72.88
2017-08-10T00:06:10.992Z,72.78
2017-08-10T00:08:13.102Z,72.78
2017-08-10T00:10:14.770Z,73.07
2017-08-10T00:12:16.358Z,73.07
2017-08-10T00:14:17.794Z,73.35
2017-08-10T00:16:19.220Z,73.07
2017-08-10T00:18:20.651Z,73.55
2017-08-10T00:20:22.068Z,72.97
2017-08-10T00:22:23.499Z,73.20
2017-08-10T00:25:06.055Z,73.20
2017-08-10T00:27:07.482Z,72.81
2017-08-10T00:29:08.902Z,73.10
2017-08-10T00:31:11.443Z,73.77
2017-08-10T00:33:12.828Z,73.20
2017-08-10T00:35:14.547Z,73.00
2017-08-10T00:37:56.981Z,73.00
2017-08-10T00:39:58.393Z,73.68
2017-08-10T00:41:59.825Z,73.39
2017-08-10T00:44:01.948Z,72.43
2017-08-10T00:46:04.120Z,73.10
2017-08-10T00:48:05.524Z,73.49
2017-08-10T00:50:06.960Z,73.77
2017-08-10T00:52:48.357Z,74.06
2017-08-10T00:54:49.785Z,73.74
2017-08-10T00:56:51.234Z,74.06
2017-08-10T00:58:52.662Z,74.12
2017-08-10T01:00:54.085Z,74.22
2017-08-10T01:03:36.966Z,73.68
2017-08-10T01:05:38.386Z,74.35
2017-08-10T01:07:41.088Z,73.87
2017-08-10T01:09:42.533Z,74.12
2017-08-10T01:11:44.104Z,74.12
2017-08-10T01:13:45.549Z,74.22
2017-08-10T01:15:47.050Z,74.69
2017-08-10T01:18:29.653Z,74.06
2017-08-10T01:20:31.224Z,74.51
2017-08-10T01:22:32.744Z,73.97
2017-08-10T01:24:34.169Z,73.93
2017-08-10T01:26:35.596Z,74.22
2017-08-10T01:28:37.049Z,73.97
2017-08-10T01:30:38.522Z,74.12
2017-08-10T01:33:21.958Z,74.51
2017-08-10T01:35:23.385Z,74.69
2017-08-10T01:37:25.412Z,74.60
2017-08-10T01:39:26.828Z,74.41
2017-08-10T01:41:28.521Z,74.69
2017-08-10T01:43:29.960Z,74.79
2017-08-10T01:45:31.447Z,74.69
2017-08-10T01:47:32.958Z,74.22
2017-08-10T01:49:34.495Z,74.60
2017-08-10T01:51:36.365Z,74.60
2017-08-10T01:53:37.863Z,74.31
2017-08-10T01:55:39.439Z,74.60
2017-08-10T01:57:40.973Z,74.89
2017-08-10T01:59:42.940Z,74.41
2017-08-10T02:01:44.834Z,74.51
2017-08-10T02:03:46.411Z,75.27
2017-08-10T02:06:29.072Z,75.08
2017-08-10T02:08:30.509Z,75.18
2017-08-10T02:10:32.967Z,75.37
2017-08-10T02:12:34.420Z,75.56
2017-08-10T02:14:36.079Z,75.37
2017-08-10T02:16:37.585Z,75.37
2017-08-10T02:19:20.013Z,75.65
2017-08-10T02:21:21.441Z,75.65
2017-08-10T02:23:22.864Z,76.04
2017-08-10T02:25:24.300Z,75.85
2017-08-10T02:27:25.718Z,75.65
2017-08-10T02:29:28.298Z,75.75
2017-08-10T02:31:29.896Z,76.04
2017-08-10T02:33:31.618Z,75.37
2017-08-10T02:35:33.057Z,75.75
2017-08-10T02:38:16.575Z,75.85
2017-08-10T02:40:18.000Z,75.56
2017-08-10T02:42:20.002Z,75.85
2017-08-10T02:44:21.482Z,75.85
2017-08-10T02:46:23.012Z,76.04
2017-08-10T02:48:25.073Z,75.95
2017-08-10T02:50:26.466Z,76.23
2017-08-10T02:52:28.075Z,75.95
2017-08-10T02:54:29.538Z,75.75
2017-08-10T02:56:31.230Z,75.65
2017-08-10T02:58:32.658Z,75.85
2017-08-10T03:00:34.413Z,75.85
2017-08-10T03:02:35.940Z,75.75
2017-08-10T03:04:37.413Z,76.04
2017-08-10T03:06:38.976Z,76.23
2017-08-10T03:09:22.396Z,76.32
2017-08-10T03:11:23.930Z,76.32
2017-08-10T03:13:25.557Z,76.42
2017-08-10T03:15:27.364Z,76.23
2017-08-10T03:18:08.995Z,76.23
2017-08-10T03:20:11.008Z,76.04
2017-08-10T03:22:12.408Z,76.52
2017-08-10T03:24:14.004Z,76.10
2017-08-10T03:26:15.484Z,76.90
2017-08-10T03:28:16.912Z,76.42
2017-08-10T03:30:18.339Z,77.06
2017-08-10T03:32:20.022Z,76.81
2017-08-10T03:34:21.579Z,76.52
2017-08-10T03:36:23.079Z,76.67
2017-08-10T03:38:24.544Z,76.52
2017-08-10T03:40:26.123Z,77.29
2017-08-10T03:43:08.548Z,77.06
2017-08-10T03:45:09.967Z,76.96
2017-08-10T03:47:11.440Z,76.52
2017-08-10T03:49:13.037Z,76.71
2017-08-10T03:51:15.146Z,76.23
2017-08-10T03:53:57.632Z,76.77
2017-08-10T03:55:59.024Z,77.15
2017-08-10T03:58:00.491Z,76.90
2017-08-10T04:00:01.901Z,77.19
2017-08-10T04:02:45.142Z,77.25
2017-08-10T04:04:46.733Z,77.34
2017-08-10T04:06:48.610Z,77.15
2017-08-10T04:08:50.340Z,76.62
2017-08-10T04:10:52.310Z,76.90
2017-08-10T04:12:53.829Z,77.09
2017-08-10T04:14:55.282Z,77.76
2017-08-10T04:16:56.705Z,77.67
2017-08-10T04:18:58.131Z,77.58
2017-08-10T04:20:59.570Z,77.29
2017-08-10T04:23:01.230Z,77.34
2017-08-10T04:25:02.986Z,77.58
2017-08-10T04:27:46.725Z,78.34
2017-08-10T04:29:48.097Z,77.95
2017-08-10T04:31:49.692Z,78.15
2017-08-10T04:33:51.180Z,77.76
2017-08-10T04:35:53.376Z,77.76
2017-08-10T04:37:54.825Z,78.05
2017-08-10T04:39:56.257Z,78.05
2017-08-10T04:41:57.680Z,77.95
2017-08-10T04:43:59.123Z,78.05
2017-08-10T04:46:00.550Z,78.05
2017-08-10T04:48:02.292Z,78.25
2017-08-10T04:50:44.693Z,78.05
2017-08-10T04:52:46.124Z,78.05
2017-08-10T04:54:47.561Z,77.76
2017-08-10T04:56:50.139Z,78.05
2017-08-10T04:58:51.636Z,78.05
2017-08-10T05:00:53.070Z,77.95
2017-08-10T05:02:54.491Z,79.01
2017-08-10T05:04:56.485Z,78.72
2017-08-10T05:06:58.284Z,78.92
2017-08-10T05:08:59.772Z,78.82
2017-08-10T05:11:01.309Z,78.92
2017-08-10T05:13:03.281Z,78.34
2017-08-10T05:15:04.782Z,77.38
2017-08-10T05:17:06.248Z,77.67
2017-08-10T05:19:08.156Z,78.25
2017-08-10T05:21:10.029Z,78.25
2017-08-10T05:23:11.666Z,77.86
2017-08-10T05:25:13.644Z,78.44
2017-08-10T05:27:56.128Z,78.25
2017-08-10T05:29:57.545Z,78.53
2017-08-10T05:31:59.035Z,78.86
2017-08-10T05:34:00.424Z,78.38
2017-08-10T05:36:01.845Z,77.04
2017-08-10T05:38:03.353Z,77.33
2017-08-10T05:40:05.034Z,78.19
2017-08-10T05:42:06.445Z,76.84
2017-08-10T05:44:07.878Z,76.56
2017-08-10T05:46:09.311Z,76.46
2017-08-10T05:48:10.760Z,76.17
2017-08-10T05:50:12.571Z,76.84
2017-08-10T05:52:13.977Z,76.27
2017-08-10T05:54:15.422Z,76.98
2017-08-10T05:56:57.841Z,76.21
2017-08-10T05:58:59.700Z,75.92
2017-08-10T06:01:01.086Z,75.73
2017-08-10T06:03:02.536Z,75.73
2017-08-10T06:05:04.328Z,77.08
2017-08-10T06:07:05.858Z,77.08
2017-08-10T06:09:07.277Z,76.34
2017-08-10T06:11:08.716Z,76.06
2017-08-10T06:13:10.145Z,75.96
2017-08-10T06:15:11.577Z,75.29
2017-08-10T06:17:13.376Z,75.87
2017-08-10T06:19:15.221Z,75.77
2017-08-10T06:21:17.104Z,76.19
2017-08-10T06:23:18.559Z,75.13
2017-08-10T06:25:20.085Z,76.00
2017-08-10T06:27:21.629Z,76.09
2017-08-10T06:29:23.119Z,75.27
2017-08-10T06:31:24.971Z,76.04
2017-08-10T06:33:26.846Z,75.46
2017-08-10T06:35:28.346Z,74.50
2017-08-10T06:38:09.752Z,72.84
2017-08-10T06:40:11.195Z,68.71
2017-08-10T06:42:12.617Z,65.59
2017-08-10T06:44:14.055Z,61.73
2017-08-10T06:46:15.489Z,58.24
2017-08-10T06:48:16.924Z,55.71
2017-08-10T06:50:18.360Z,53.83
2017-08-10T06:52:19.798Z,53.49
2017-08-10T06:54:21.238Z,55.17
2017-08-10T06:56:22.682Z,55.21
2017-08-10T06:58:24.109Z,55.99
2017-08-10T07:00:25.550Z,56.57
2017-08-10T07:02:26.991Z,55.96
2017-08-10T07:04:28.430Z,55.41
2017-08-10T07:06:29.864Z,56.09
2017-08-10T07:08:31.302Z,55.67
2017-08-10T07:10:32.738Z,56.45
2017-08-10T07:12:34.173Z,57.41
2017-08-10T07:14:35.609Z,57.29
2017-08-10T07:16:37.042Z,57.93
2017-08-10T07:18:38.476Z,58.48
2017-08-10T07:20:39.910Z,59.52
2017-08-10T07:22:41.348Z,60.77
2017-08-10T07:24:42.779Z,62.18
2017-08-10T07:26:44.220Z,63.92
2017-08-10T07:28:45.656Z,63.92
2017-08-10T07:30:47.132Z,65.37
2017-08-10T07:32:48.634Z,63.54
2017-08-10T07:34:50.506Z,61.83
2017-08-10T07:36:51.960Z,59.90
2017-08-10T07:38:53.411Z,58.68
2017-08-10T07:40:54.990Z,58.84
2017-08-10T07:42:56.521Z,59.55
2017-08-10T07:44:58.174Z,58.48
2017-08-10T07:47:40.823Z,57.42
2017-08-10T07:49:43.476Z,59.64
2017-08-10T07:51:47.139Z,58.10
2017-08-10T07:53:48.965Z,57.59
2017-08-10T07:55:50.902Z,56.72
2017-08-10T07:57:52.420Z,59.00
2017-08-10T07:59:54.366Z,56.98
2017-08-10T08:01:56.288Z,59.97
2017-08-10T08:03:58.093Z,62.18
2017-08-10T08:05:59.786Z,58.72
2017-08-10T08:08:01.753Z,59.00
2017-08-10T08:10:03.644Z,60.74
2017-08-10T08:12:05.503Z,59.39
2017-08-10T08:14:08.026Z,60.35
2017-08-10T08:16:09.571Z,61.99
2017-08-10T08:18:11.405Z,62.38
2017-08-10T08:20:13.313Z,59.30
2017-08-10T08:22:15.006Z,59.00
2017-08-10T08:24:57.395Z,57.56
2017-08-10T08:26:58.898Z,57.27
2017-08-10T08:29:00.338Z,57.75
2017-08-10T08:31:01.775Z,59.30
2017-08-10T08:33:03.248Z,59.30
2017-08-10T08:35:04.674Z,60.06
2017-08-10T08:37:06.137Z,61.41
2017-08-10T08:39:07.631Z,61.06
2017-08-10T08:41:09.062Z,59.55
2017-08-10T08:43:10.582Z,57.42
2017-08-10T08:45:12.050Z,57.14
2017-08-10T08:47:13.526Z,56.33
2017-08-10T08:49:15.078Z,56.74
2017-08-10T08:51:16.534Z,57.32
2017-08-10T08:53:18.161Z,57.23
2017-08-10T08:55:19.777Z,57.42
2017-08-10T08:57:21.203Z,56.39
2017-08-10T08:59:22.773Z,56.77
2017-08-10T09:01:24.562Z,58.32
2017-08-10T09:03:26.127Z,58.83
2017-08-10T09:05:27.610Z,59.05
2017-08-10T09:07:29.498Z,53.74
2017-08-10T09:09:31.136Z,54.13
2017-08-10T09:11:32.758Z,54.71
2017-08-10T09:13:34.585Z,53.64
2017-08-10T09:15:36.335Z,53.45
2017-08-10T09:17:38.054Z,52.31
2017-08-10T09:19:39.870Z,54.44
2017-08-10T09:21:41.688Z,52.80
2017-08-10T09:23:43.298Z,52.31
2017-08-10T09:25:44.974Z,53.79
2017-08-10T09:27:46.628Z,51.86
2017-08-10T09:29:48.166Z,50.89
2017-08-10T09:31:49.694Z,50.14
2017-08-10T09:33:51.447Z,49.44
2017-08-10T09:35:53.242Z,50.72
2017-08-10T09:37:54.988Z,49.27
2017-08-10T09:39:56.550Z,48.79
2017-08-10T09:41:58.092Z,48.01
2017-08-10T09:43:59.675Z,49.17
2017-08-10T09:46:01.182Z,50.02
2017-08-10T09:48:02.718Z,49.63
2017-08-10T09:50:04.238Z,48.37
2017-08-10T09:52:05.812Z,50.98
2017-08-10T09:54:07.283Z,49.92
2017-08-10T09:56:08.815Z,49.63
2017-08-10T09:58:10.574Z,51.47
2017-08-10T10:00:12.125Z,51.59
2017-08-10T10:02:13.968Z,49.85
2017-08-10T10:04:15.750Z,49.39
2017-08-10T10:06:17.535Z,48.22
2017-08-10T10:08:19.043Z,49.19
2017-08-10T10:10:20.575Z,48.06
2017-08-10T10:12:22.495Z,47.74
2017-08-10T10:14:24.356Z,46.58
2017-08-10T10:16:25.860Z,48.22
2017-08-10T10:18:27.368Z,48.83
2017-08-10T10:20:29.321Z,46.41
2017-08-10T10:22:31.112Z,46.41
2017-08-10T10:24:32.680Z,46.70
2017-08-10T10:26:34.229Z,46.60
2017-08-10T10:28:35.755Z,43.89
2017-08-10T10:30:37.236Z,43.99
2017-08-10T10:32:38.823Z,47.06
2017-08-10T10:34:40.436Z,46.48
2017-08-10T10:36:42.052Z,47.26
2017-08-10T10:38:43.596Z,47.06
2017-08-10T10:40:45.151Z,47.52
2017-08-10T10:42:46.732Z,48.81
2017-08-10T10:44:48.277Z,49.00
2017-08-10T10:47:30.863Z,49.68
2017-08-10T10:49:32.243Z,47.55
2017-08-10T10:51:33.681Z,47.84
2017-08-10T10:53:35.120Z,48.42
2017-08-10T10:55:36.654Z,48.71
2017-08-10T10:57:38.149Z,51.23
2017-08-10T10:59:39.711Z,51.72
2017-08-10T11:01:41.475Z,48.79
2017-08-10T11:03:42.932Z,47.14
2017-08-10T11:05:44.539Z,47.72
2017-08-10T11:07:46.281Z,46.84
2017-08-10T11:09:47.878Z,48.81
2017-08-10T11:11:49.553Z,47.62
2017-08-10T11:13:51.160Z,47.84
2017-08-10T11:15:52.664Z,43.95
2017-08-10T11:17:54.585Z,43.07
2017-08-10T11:19:56.391Z,44.33
2017-08-10T11:21:58.159Z,45.13
2017-08-10T11:23:59.671Z,44.74
2017-08-10T11:26:01.195Z,43.41
2017-08-10T11:28:02.731Z,43.60
2017-08-10T11:30:04.308Z,43.41
2017-08-10T11:32:05.950Z,44.67
2017-08-10T11:34:07.478Z,42.82
2017-08-10T11:36:08.963Z,43.99
2017-08-10T11:38:10.496Z,47.26
2017-08-10T11:40:11.997Z,45.61
2017-08-10T11:42:13.550Z,44.93
2017-08-10T11:44:15.223Z,45.03
2017-08-10T11:46:16.797Z,48.03
2017-08-10T11:48:18.386Z,44.74
2017-08-10T11:50:20.207Z,43.68
2017-08-10T11:52:22.004Z,47.94
2017-08-10T11:54:23.473Z,42.61
2017-08-10T11:56:25.280Z,43.09
2017-08-10T11:58:26.749Z,42.90
2017-08-10T12:00:28.285Z,44.84
2017-08-10T12:02:30.208Z,44.74
2017-08-10T12:04:31.734Z,44.35
2017-08-10T12:06:33.625Z,45.51
2017-08-10T12:08:35.152Z,46.67
2017-08-10T12:10:36.737Z,46.58
2017-08-10T12:12:38.253Z,47.55
2017-08-10T12:14:39.792Z,47.06
2017-08-10T12:16:41.384Z,47.06
2017-08-10T12:18:42.922Z,45.78
2017-08-10T12:20:44.377Z,45.59
2017-08-10T12:22:45.926Z,46.84
2017-08-10T12:24:47.395Z,48.01
2017-08-10T12:26:48.833Z,47.91
2017-08-10T12:28:50.281Z,47.24
2017-08-10T12:30:51.712Z,49.37
2017-08-10T12:32:53.189Z,48.49
2017-08-10T12:34:54.635Z,48.79
2017-08-10T12:36:56.085Z,47.62
2017-08-10T12:38:57.512Z,49.17
2017-08-10T12:40:59.028Z,49.37
2017-08-10T12:43:00.458Z,48.49
2017-08-10T12:45:02.322Z,50.02
2017-08-10T12:47:03.804Z,51.47
2017-08-10T12:49:05.311Z,50.21
2017-08-10T12:51:06.791Z,49.75
2017-08-10T12:53:08.294Z,50.60
2017-08-10T12:55:09.770Z,50.12
2017-08-10T12:57:11.262Z,50.70
2017-08-10T12:59:12.696Z,49.92
2017-08-10T13:01:14.137Z,49.05
2017-08-10T13:03:15.575Z,50.12
2017-08-10T13:05:17.008Z,51.28
2017-08-10T13:07:18.449Z,49.92
2017-08-10T13:09:19.890Z,50.21
2017-08-10T13:11:21.328Z,49.24
2017-08-10T13:13:22.753Z,48.18
2017-08-10T13:15:24.197Z,49.24
2017-08-10T13:17:25.625Z,50.60
2017-08-10T13:19:27.079Z,50.60
2017-08-10T13:21:28.644Z,49.82
2017-08-10T13:23:30.092Z,49.56
2017-08-10T13:25:31.600Z,48.11
2017-08-10T13:27:33.027Z,47.14
2017-08-10T13:29:34.461Z,45.10
2017-08-10T13:31:35.903Z,46.94
2017-08-10T13:33:37.337Z,47.89
2017-08-10T13:35:38.774Z,47.91
2017-08-10T13:37:40.208Z,48.95
2017-08-10T13:39:41.649Z,47.02
2017-08-10T13:41:43.090Z,48.08
2017-08-10T13:43:44.530Z,47.79
2017-08-10T13:45:45.968Z,49.63
2017-08-10T13:47:47.403Z,51.83
2017-08-10T13:49:48.840Z,49.02
2017-08-10T13:51:50.279Z,50.96
2017-08-10T13:53:51.711Z,54.25
2017-08-10T13:55:53.153Z,54.05
2017-08-10T13:57:54.596Z,52.70
2017-08-10T13:59:56.023Z,51.35
2017-08-10T14:01:57.460Z,53.28
2017-08-10T14:03:58.894Z,52.19
2017-08-10T14:06:00.328Z,52.67
2017-08-10T14:08:01.769Z,51.73
2017-08-10T14:10:03.210Z,51.64
2017-08-10T14:12:04.643Z,51.51
2017-08-10T14:14:06.076Z,52.39
2017-08-10T14:16:07.514Z,52.48
2017-08-10T14:18:08.957Z,51.90
2017-08-10T14:20:10.383Z,51.32
2017-08-10T14:22:11.818Z,53.83
2017-08-10T14:24:13.259Z,53.83
2017-08-10T14:26:14.689Z,55.38
2017-08-10T14:28:16.129Z,54.03
2017-08-10T14:30:17.565Z,54.71
2017-08-10T14:32:18.999Z,56.05
2017-08-10T14:34:20.436Z,56.35
2017-08-10T14:36:21.870Z,55.09
2017-08-10T14:38:23.312Z,53.25
2017-08-10T14:40:24.742Z,54.03
2017-08-10T14:42:26.190Z,53.74
2017-08-10T14:44:27.618Z,53.06
2017-08-10T14:46:29.068Z,55.29
2017-08-10T14:48:30.503Z,52.39
2017-08-10T14:50:31.938Z,51.81
2017-08-10T14:52:33.373Z,54.71
2017-08-10T14:54:34.807Z,53.93
2017-08-10T14:56:36.242Z,54.68
2017-08-10T14:58:37.696Z,54.49
2017-08-10T15:00:39.097Z,53.74
2017-08-10T15:02:40.695Z,52.87
2017-08-10T15:04:42.166Z,52.58
2017-08-10T15:06:43.658Z,55.19
2017-08-10T15:08:45.111Z,55.29
2017-08-10T15:10:46.539Z,54.68
2017-08-10T15:12:47.980Z,55.29
2017-08-10T15:14:49.433Z,54.97
2017-08-10T15:16:50.870Z,55.96
2017-08-10T15:18:52.305Z,55.19
2017-08-10T15:20:53.746Z,55.16
2017-08-10T15:22:55.191Z,54.77
2017-08-10T15:24:56.637Z,55.93
2017-08-10T15:26:58.086Z,55.35
2017-08-10T15:28:59.590Z,56.13
2017-08-10T15:31:01.063Z,55.74
2017-08-10T15:33:02.517Z,57.19
2017-08-10T15:35:03.946Z,57.29
2017-08-10T15:37:05.391Z,58.73
2017-08-10T15:39:06.861Z,58.83
2017-08-10T15:41:08.298Z,59.31
2017-08-10T15:43:09.734Z,60.47
2017-08-10T15:45:11.171Z,59.41
2017-08-10T15:47:12.747Z,59.51
2017-08-10T15:49:14.280Z,60.47
2017-08-10T15:51:15.728Z,59.80
2017-08-10T15:53:17.221Z,59.99
2017-08-10T15:55:18.736Z,59.22
2017-08-10T15:57:20.277Z,59.51
2017-08-10T15:59:21.744Z,59.89
2017-08-10T16:01:23.243Z,59.02
2017-08-10T16:03:24.746Z,59.99
2017-08-10T16:05:26.301Z,60.09
2017-08-10T16:07:27.768Z,60.57
2017-08-10T16:09:29.326Z,60.18
2017-08-10T16:11:30.805Z,60.25
2017-08-10T16:13:32.339Z,60.25
2017-08-10T16:15:33.980Z,60.25
2017-08-10T16:17:35.540Z,60.06
2017-08-10T16:20:17.948Z,60.93
2017-08-10T16:22:19.462Z,61.60
2017-08-10T16:24:21.144Z,61.31
2017-08-10T16:26:22.637Z,61.31
2017-08-10T16:28:24.199Z,61.89
2017-08-10T16:30:25.644Z,61.41
2017-08-10T16:32:27.099Z,61.57
2017-08-10T16:34:28.528Z,62.08
2017-08-10T16:36:29.970Z,62.44
2017-08-10T16:38:31.400Z,62.92
2017-08-10T16:40:32.857Z,63.24
2017-08-10T16:42:34.295Z,62.73
2017-08-10T16:44:35.733Z,63.31
2017-08-10T16:46:37.180Z,64.47
2017-08-10T16:48:38.740Z,62.25
2017-08-10T16:50:40.172Z,62.82
2017-08-10T16:52:41.609Z,62.82
2017-08-10T16:54:43.039Z,61.57
2017-08-10T16:56:44.470Z,62.25
2017-08-10T16:58:45.911Z,62.92
2017-08-10T17:00:47.345Z,62.54
2017-08-10T17:02:48.776Z,62.54
2017-08-10T17:04:50.212Z,62.73
2017-08-10T17:06:51.645Z,62.63
2017-08-10T17:08:53.082Z,62.82
2017-08-10T17:10:54.518Z,63.02
2017-08-10T17:12:55.996Z,63.89
2017-08-10T17:14:57.426Z,63.12
2017-08-10T17:16:58.859Z,63.70
2017-08-10T17:19:00.316Z,61.83
2017-08-10T17:21:01.953Z,63.12
2017-08-10T17:23:03.469Z,63.50
2017-08-10T17:25:04.926Z,62.92
2017-08-10T17:27:07.136Z,62.99
2017-08-10T17:29:08.649Z,63.28
2017-08-10T17:31:10.137Z,64.05
2017-08-10T17:33:11.586Z,63.37
2017-08-10T17:35:13.204Z,63.76
2017-08-10T17:37:14.692Z,62.70
2017-08-10T17:39:16.731Z,63.37
2017-08-10T17:41:18.688Z,64.34
2017-08-10T17:43:20.201Z,64.24
2017-08-10T17:45:21.666Z,64.53
2017-08-10T17:47:23.118Z,64.56
2017-08-10T17:49:24.781Z,63.47
2017-08-10T17:51:27.360Z,63.89
2017-08-10T17:53:30.439Z,62.51
2017-08-10T17:55:32.054Z,63.85
2017-08-10T17:57:33.613Z,64.34
2017-08-10T17:59:35.121Z,64.72
2017-08-10T18:01:36.730Z,63.76
2017-08-10T18:03:39.115Z,63.67
2017-08-10T18:05:40.649Z,63.57
2017-08-10T18:07:42.099Z,63.09
2017-08-10T18:09:43.932Z,62.31
2017-08-10T18:11:45.860Z,62.99
2017-08-10T18:13:48.219Z,63.28
2017-08-10T18:15:49.682Z,63.76
2017-08-10T18:17:51.128Z,63.85
2017-08-10T18:19:52.562Z,63.67
2017-08-10T18:21:54.044Z,63.95
2017-08-10T18:23:55.470Z,64.05
2017-08-10T18:25:56.904Z,63.57
2017-08-10T18:27:58.695Z,64.24
2017-08-10T18:30:00.128Z,64.92
2017-08-10T18:32:01.559Z,64.53
2017-08-10T18:34:02.990Z,65.59
2017-08-10T18:36:04.430Z,66.27
2017-08-10T18:38:05.856Z,66.17
2017-08-10T18:40:07.554Z,67.14
2017-08-10T18:42:08.991Z,66.94
2017-08-10T18:44:10.425Z,66.91
2017-08-10T18:46:11.857Z,67.40
2017-08-10T18:48:13.301Z,67.88
2017-08-10T18:50:14.732Z,68.26
2017-08-10T18:52:16.185Z,68.65
2017-08-10T18:54:17.916Z,68.07
2017-08-10T18:56:19.673Z,66.04
2017-08-10T18:58:21.450Z,66.24
2017-08-10T19:00:23.204Z,65.75
2017-08-10T19:02:24.605Z,67.30
2017-08-10T19:04:26.046Z,66.72
2017-08-10T19:06:27.469Z,66.04
2017-08-10T19:08:28.901Z,67.10
2017-08-10T19:10:30.332Z,66.72
2017-08-10T19:12:31.962Z,67.10
2017-08-10T19:14:33.395Z,67.78
2017-08-10T19:16:35.005Z,66.72
2017-08-10T19:18:36.599Z,66.69
2017-08-10T19:20:38.037Z,67.65
2017-08-10T19:22:39.543Z,67.65
2017-08-10T19:24:41.324Z,67.16
2017-08-10T19:26:43.215Z,67.84
2017-08-10T19:29:25.836Z,67.55
2017-08-10T19:31:27.356Z,67.94
2017-08-10T19:33:28.805Z,67.26
2017-08-10T19:35:30.226Z,66.88
2017-08-10T19:37:31.794Z,66.78
2017-08-10T19:39:33.387Z,66.78
2017-08-10T19:41:35.199Z,66.88
2017-08-10T19:43:36.984Z,66.69
2017-08-10T19:46:18.633Z,66.69
2017-08-10T19:48:20.054Z,66.78
2017-08-10T19:50:21.481Z,66.69
2017-08-10T19:52:22.919Z,67.26
2017-08-10T19:54:25.809Z,67.65
2017-08-10T19:56:27.829Z,66.69
2017-08-10T19:58:29.207Z,67.07
2017-08-10T20:00:30.650Z,66.97
2017-08-10T20:02:32.071Z,66.69
2017-08-10T20:04:33.780Z,67.74
2017-08-10T20:06:35.212Z,67.94
2017-08-10T20:08:36.638Z,67.07
2017-08-10T20:10:38.066Z,67.84
2017-08-10T20:12:39.514Z,68.23
2017-08-10T20:14:40.953Z,68.42
2017-08-10T20:16:42.513Z,68.23
2017-08-10T20:18:44.016Z,67.74
2017-08-10T20:20:45.445Z,68.32
2017-08-10T20:22:46.880Z,69.19
2017-08-10T20:24:48.313Z,69.67
2017-08-10T20:26:49.850Z,70.35
2017-08-10T20:28:51.286Z,71.79
2017-08-10T20:30:52.728Z,72.63
2017-08-10T20:32:54.204Z,73.78
2017-08-10T20:34:55.688Z,74.45
2017-08-10T20:36:57.273Z,74.65
2017-08-10T20:38:58.837Z,74.84
2017-08-10T20:41:00.279Z,74.93
2017-08-10T20:43:43.513Z,76.18
2017-08-10T20:45:44.929Z,76.38
2017-08-10T20:47:46.394Z,76.48
2017-08-10T20:49:47.908Z,77.01
2017-08-10T20:51:49.341Z,77.59
2017-08-10T20:53:51.408Z,77.50
2017-08-10T20:55:52.832Z,76.92
2017-08-10T20:57:54.844Z,77.59
2017-08-10T20:59:56.510Z,77.78
2017-08-10T21:01:58.470Z,78.56
2017-08-10T21:04:00.027Z,78.85
2017-08-10T21:06:01.555Z,79.13
2017-08-10T21:08:03.092Z,79.52
2017-08-10T21:10:04.608Z,78.94
2017-08-10T21:12:06.044Z,78.46
2017-08-10T21:14:49.024Z,78.85
2017-08-10T21:16:50.927Z,79.23
2017-08-10T21:18:53.454Z,79.03
2017-08-10T21:20:55.478Z,78.94
2017-08-10T21:22:56.922Z,78.56
2017-08-10T21:24:58.918Z,79.03
2017-08-10T21:27:41.589Z,80.00
2017-08-10T21:29:43.632Z,79.52
2017-08-10T21:31:45.430Z,79.13
2017-08-10T21:33:46.821Z,79.03
2017-08-10T21:35:48.603Z,79.23
2017-08-10T21:37:50.061Z,79.90
2017-08-10T21:39:51.479Z,79.71
2017-08-10T21:41:52.896Z,79.33
2017-08-10T21:44:35.313Z,79.90
2017-08-10T21:46:37.304Z,79.90
2017-08-10T21:48:39.190Z,79.61
2017-08-10T21:50:40.623Z,79.90
2017-08-10T21:52:42.253Z,79.71
2017-08-10T21:54:43.762Z,79.23
2017-08-10T21:56:45.323Z,79.03
2017-08-10T21:58:46.817Z,79.13
2017-08-10T22:00:48.915Z,79.67
2017-08-10T22:02:50.483Z,80.00
2017-08-10T22:04:52.517Z,80.73
2017-08-10T22:06:54.419Z,79.38
2017-08-10T22:09:37.226Z,79.81
2017-08-10T22:11:39.186Z,80.73
2017-08-10T22:13:40.580Z,80.06
2017-08-10T22:15:42.053Z,79.86
2017-08-10T22:17:43.554Z,80.15
2017-08-10T22:19:45.498Z,80.15
2017-08-10T22:21:47.441Z,79.28
2017-08-10T22:24:30.376Z,80.54
2017-08-10T22:26:32.023Z,80.54
2017-08-10T22:28:33.431Z,80.63
2017-08-10T22:30:35.031Z,80.35
2017-08-10T22:32:36.457Z,80.25
2017-08-10T22:34:37.895Z,80.35
2017-08-10T22:36:39.346Z,81.02
2017-08-10T22:38:40.829Z,80.92
2017-08-10T22:40:42.268Z,81.21
2017-08-10T22:42:43.761Z,81.02
2017-08-10T22:44:45.202Z,81.30
2017-08-10T22:46:46.671Z,81.21
2017-08-10T22:48:48.136Z,81.02
2017-08-10T22:50:49.735Z,80.73
2017-08-10T22:52:51.252Z,81.21
2017-08-10T22:54:52.677Z,81.02
2017-08-10T22:57:35.453Z,81.12
2017-08-10T22:59:36.866Z,80.92
2017-08-10T23:01:38.288Z,81.02
2017-08-10T23:03:40.431Z,81.12
2017-08-10T23:05:42.275Z,81.17
2017-08-10T23:07:44.027Z,81.75
2017-08-10T23:09:45.642Z,82.04
2017-08-10T23:12:28.298Z,81.60
2017-08-10T23:14:29.702Z,81.88
2017-08-10T23:16:31.451Z,81.94
2017-08-10T23:18:33.592Z,82.14
2017-08-10T23:20:35.027Z,83.00
2017-08-10T23:22:36.453Z,83.00
2017-08-10T23:24:37.923Z,83.19
2017-08-10T23:26:39.469Z,82.71
2017-08-10T23:28:40.898Z,82.32
2017-08-10T23:30:42.672Z,82.14
2017-08-10T23:32:44.519Z,81.17
2017-08-10T23:34:45.961Z,80.11
2017-08-10T23:36:47.486Z,80.02
2017-08-10T23:38:48.954Z,79.35
2017-08-10T23:40:50.746Z,80.02
2017-08-10T23:43:33.423Z,79.73
2017-08-10T23:45:35.838Z,79.69
2017-08-10T23:47:38.783Z,80.11
2017-08-10T23:49:40.234Z,79.92
2017-08-10T23:51:41.763Z,79.98
2017-08-10T23:53:43.318Z,80.07
2017-08-10T23:55:44.855Z,79.69
2017-08-10T23:57:46.432Z,79.21
